Time;durP1;ratioP1;P1;durP2;ratioP2;P2;SDS_P1;SDS_P2;PMS_P1;PMS_P2;Temp;Humidity;BMP_temperature;BMP_pressure;BME280_temperature;BME280_humidity;BME280_pressure;Samples;Min_cycle;Max_cycle;Signal;HPM_P1;HPM_P2
2020/12/10 00:00:13;;;;;;;25.53;15.50;;;1.70;99.90;;;;;;5081950;28;20537;-77
2020/12/10 00:02:39;;;;;;;33.50;16.93;;;1.70;99.90;;;;;;5082597;28;20396;-76
2020/12/10 00:05:07;;;;;;;25.07;16.37;;;1.70;99.90;;;;;;5081709;28;20386;-77
2020/12/10 00:07:34;;;;;;;28.90;15.60;;;1.70;99.90;;;;;;5083670;28;20264;-77
2020/12/10 00:10:00;;;;;;;26.90;15.40;;;1.70;99.90;;;;;;5080873;28;20470;-76
2020/12/10 00:12:25;;;;;;;31.30;15.37;;;1.70;99.90;;;;;;5084213;28;20476;-76
2020/12/10 00:14:53;;;;;;;31.37;16.30;;;1.70;99.90;;;;;;5080798;28;20420;-77
2020/12/10 00:17:24;;;;;;;34.03;17.33;;;1.70;99.90;;;;;;5083193;28;20182;-77
2020/12/10 00:19:49;;;;;;;28.00;16.43;;;1.60;99.90;;;;;;5080890;28;20434;-77
2020/12/10 00:22:15;;;;;;;25.40;14.60;;;1.60;99.90;;;;;;5082670;28;20834;-77
2020/12/10 00:24:40;;;;;;;29.60;16.90;;;1.60;99.90;;;;;;5082077;28;20604;-76
2020/12/10 00:27:06;;;;;;;27.37;15.90;;;1.70;99.90;;;;;;5081245;28;20181;-76
2020/12/10 00:29:31;;;;;;;26.17;14.13;;;1.70;99.90;;;;;;5082200;28;20173;-76
2020/12/10 00:31:56;;;;;;;29.40;16.17;;;1.70;99.90;;;;;;5080347;28;20253;-76
2020/12/10 00:34:22;;;;;;;30.97;15.60;;;1.70;99.90;;;;;;5083529;28;20176;-76
2020/12/10 00:36:47;;;;;;;24.80;15.80;;;1.70;99.90;;;;;;5080651;28;20240;-76
2020/12/10 00:39:13;;;;;;;29.87;15.63;;;1.70;99.90;;;;;;5082062;28;20252;-77
2020/12/10 00:41:38;;;;;;;28.83;15.20;;;1.70;99.90;;;;;;5082022;28;20701;-76
2020/12/10 00:44:05;;;;;;;25.47;15.67;;;1.70;99.90;;;;;;5080900;28;20253;-76
2020/12/10 00:46:30;;;;;;;29.03;16.17;;;1.70;99.90;;;;;;5082582;28;20183;-76
2020/12/10 00:48:56;;;;;;;31.73;17.47;;;1.70;99.90;;;;;;5079751;28;20457;-77
2020/12/10 00:51:21;;;;;;;28.03;16.47;;;1.70;99.90;;;;;;5082736;28;20568;-77
2020/12/10 00:53:47;;;;;;;27.07;15.60;;;1.70;99.90;;;;;;5080705;28;20286;-77
2020/12/10 00:56:12;;;;;;;28.63;16.70;;;1.70;99.90;;;;;;5081429;28;20180;-77
2020/12/10 00:58:38;;;;;;;27.70;16.47;;;1.70;99.90;;;;;;5082002;28;20195;-76
2020/12/10 01:01:03;;;;;;;25.60;15.43;;;1.70;99.90;;;;;;5080157;28;20232;-77
2020/12/10 01:03:29;;;;;;;24.50;14.13;;;1.80;99.90;;;;;;5083163;28;20203;-76
2020/12/10 01:05:54;;;;;;;24.53;16.10;;;1.70;99.90;;;;;;5079348;28;20529;-77
2020/12/10 01:08:20;;;;;;;25.00;14.50;;;1.70;99.90;;;;;;5081402;28;20184;-77
2020/12/10 01:10:45;;;;;;;24.40;14.17;;;1.70;99.90;;;;;;5080689;28;20203;-77
2020/12/10 01:13:11;;;;;;;25.63;14.70;;;1.70;99.90;;;;;;5079908;28;20768;-77
2020/12/10 01:15:36;;;;;;;23.93;15.00;;;1.70;99.90;;;;;;5081828;28;20263;-76
2020/12/10 01:18:02;;;;;;;24.10;15.23;;;1.70;99.90;;;;;;5078581;28;20659;-77
2020/12/10 01:20:27;;;;;;;26.07;15.93;;;1.80;99.90;;;;;;5083008;28;20201;-77
2020/12/10 01:22:53;;;;;;;26.70;14.80;;;1.80;99.90;;;;;;5079443;28;20706;-77
2020/12/10 01:25:18;;;;;;;25.63;14.47;;;1.80;99.90;;;;;;5082354;28;20199;-78
2020/12/10 01:27:44;;;;;;;28.20;15.20;;;1.80;99.90;;;;;;5080564;28;20653;-77
2020/12/10 01:30:09;;;;;;;25.33;14.03;;;1.80;99.90;;;;;;5079554;28;20204;-77
2020/12/10 01:32:35;;;;;;;23.57;13.83;;;1.80;99.90;;;;;;5081877;28;20254;-76
2020/12/10 01:35:00;;;;;;;23.30;14.67;;;1.80;99.90;;;;;;5079687;28;20174;-77
2020/12/10 01:37:26;;;;;;;26.10;15.20;;;1.80;99.90;;;;;;5082515;28;20259;-77
2020/12/10 01:39:52;;;;;;;20.87;13.93;;;1.80;99.90;;;;;;5079361;28;20283;-77
2020/12/10 01:42:19;;;;;;;21.50;13.50;;;1.90;99.90;;;;;;5081600;28;20176;-77
2020/12/10 01:44:45;;;;;;;26.23;15.60;;;1.80;99.90;;;;;;5079499;28;21005;-77
2020/12/10 01:47:10;;;;;;;22.80;13.97;;;1.80;99.90;;;;;;5080434;28;20435;-77
2020/12/10 01:49:38;;;;;;;27.20;14.97;;;1.80;99.90;;;;;;5081527;28;20539;-77
2020/12/10 01:52:05;;;;;;;21.00;12.60;;;1.80;99.90;;;;;;5080109;28;20519;-77
2020/12/10 01:54:32;;;;;;;22.67;14.03;;;1.80;99.90;;;;;;5082556;28;20849;-77
2020/12/10 01:56:57;;;;;;;28.33;14.93;;;1.80;99.90;;;;;;5078836;28;20769;-76
2020/12/10 01:59:23;;;;;;;27.50;15.00;;;1.70;99.90;;;;;;5082869;28;20426;-76
2020/12/10 02:01:50;;;;;;;22.50;14.03;;;1.80;99.90;;;;;;5082515;28;20214;-76
2020/12/10 02:04:34;;;;;;;22.43;14.63;;;1.80;99.90;;;;;;5084029;28;20219;-77
2020/12/10 02:07:03;;;;;;;27.43;16.30;;;1.70;99.90;;;;;;5081599;28;20422;-76
2020/12/10 02:09:29;;;;;;;21.80;14.17;;;1.80;99.90;;;;;;5086376;28;20393;-77
2020/12/10 02:11:55;;;;;;;23.90;14.37;;;1.80;99.90;;;;;;5083243;28;20420;-77
2020/12/10 02:14:21;;;;;;;25.60;15.03;;;1.80;99.90;;;;;;5085131;28;20410;-77
2020/12/10 02:16:53;;;;;;;29.33;15.63;;;1.80;99.90;;;;;;5083593;28;20407;-77
2020/12/10 02:19:19;;;;;;;26.07;14.50;;;1.80;99.90;;;;;;5085484;28;20587;-76
2020/12/10 02:21:44;;;;;;;26.53;15.03;;;1.80;99.90;;;;;;5084258;28;20393;-77
2020/12/10 02:24:15;;;;;;;28.67;15.67;;;1.80;99.90;;;;;;5084079;28;20428;-76
2020/12/10 02:26:41;;;;;;;27.40;16.00;;;1.80;99.90;;;;;;5084329;28;20732;-77
2020/12/10 02:29:08;;;;;;;22.80;13.70;;;1.80;99.90;;;;;;5083572;28;20394;-77
2020/12/10 02:31:34;;;;;;;23.27;13.73;;;1.80;99.90;;;;;;5085271;28;20198;-77
2020/12/10 02:34:01;;;;;;;20.37;13.47;;;1.80;99.90;;;;;;5082539;28;20390;-76
2020/12/10 02:36:27;;;;;;;24.03;14.43;;;1.80;99.90;;;;;;5085709;28;20422;-76
2020/12/10 02:38:53;;;;;;;22.87;12.90;;;1.80;99.90;;;;;;5082282;28;20431;-77
2020/12/10 02:41:18;;;;;;;28.23;15.60;;;1.80;99.90;;;;;;5084442;28;20618;-77
2020/12/10 02:43:44;;;;;;;25.40;15.20;;;1.80;99.90;;;;;;5083353;28;20245;-77
2020/12/10 02:46:10;;;;;;;21.23;13.50;;;1.80;99.90;;;;;;5083625;28;20184;-77
2020/12/10 02:48:36;;;;;;;25.67;14.90;;;1.80;99.90;;;;;;5084713;28;20192;-77
2020/12/10 02:51:02;;;;;;;23.13;14.60;;;1.70;99.90;;;;;;5082339;28;20441;-77
2020/12/10 02:53:28;;;;;;;25.07;14.83;;;1.80;99.90;;;;;;5085612;28;20185;-77
2020/12/10 02:55:54;;;;;;;24.97;14.83;;;1.80;99.90;;;;;;5081976;28;21157;-76
2020/12/10 02:58:21;;;;;;;24.97;15.60;;;1.80;99.90;;;;;;5084944;28;20438;-76
2020/12/10 03:00:46;;;;;;;29.73;16.23;;;1.80;99.90;;;;;;5082919;28;20257;-77
2020/12/10 03:03:11;;;;;;;27.83;14.77;;;1.80;99.90;;;;;;5083870;28;20467;-77
2020/12/10 03:05:37;;;;;;;24.90;15.80;;;1.90;99.90;;;;;;5083988;28;20188;-76
2020/12/10 03:08:02;;;;;;;25.83;15.10;;;1.90;99.90;;;;;;5082379;28;20539;-76
2020/12/10 03:10:28;;;;;;;29.30;16.37;;;1.90;99.90;;;;;;5085014;28;20197;-77
2020/12/10 03:12:53;;;;;;;30.87;16.13;;;1.90;99.90;;;;;;5081730;28;20539;-77
2020/12/10 03:15:19;;;;;;;32.70;17.20;;;1.90;99.90;;;;;;5084470;28;20276;-76
2020/12/10 03:17:44;;;;;;;37.30;18.80;;;1.90;99.90;;;;;;5082718;28;20687;-77
2020/12/10 03:20:10;;;;;;;31.40;18.30;;;1.90;99.90;;;;;;5081880;28;20197;-77
2020/12/10 03:22:35;;;;;;;34.70;18.50;;;1.80;99.90;;;;;;5083922;28;20183;-77
2020/12/10 03:25:01;;;;;;;36.23;18.30;;;1.80;99.90;;;;;;5081920;28;20177;-76
2020/12/10 03:27:27;;;;;;;30.50;17.47;;;1.90;99.90;;;;;;5084925;28;20184;-77
2020/12/10 03:29:53;;;;;;;33.97;18.30;;;1.90;99.90;;;;;;5081556;28;20600;-76
2020/12/10 03:32:18;;;;;;;34.67;18.77;;;1.80;99.90;;;;;;5084239;28;20187;-77
2020/12/10 03:34:44;;;;;;;31.17;18.40;;;1.80;99.90;;;;;;5082746;28;20661;-76
2020/12/10 03:37:09;;;;;;;34.83;18.00;;;1.70;99.90;;;;;;5082483;28;20216;-76
2020/12/10 03:39:35;;;;;;;34.63;18.00;;;1.70;99.90;;;;;;5083820;28;20690;-77
2020/12/10 03:42:01;;;;;;;38.57;19.73;;;1.80;99.90;;;;;;5081566;28;20177;-76
2020/12/10 03:44:27;;;;;;;30.03;18.63;;;1.80;99.90;;;;;;5084818;28;20196;-77
2020/12/10 03:46:53;;;;;;;34.83;18.43;;;1.90;99.90;;;;;;5079795;28;20822;-77
2020/12/10 03:49:19;;;;;;;33.20;18.73;;;1.80;99.90;;;;;;5083770;28;20495;-77
2020/12/10 03:51:45;;;;;;;33.80;18.63;;;1.80;99.90;;;;;;5082189;28;20434;-77
2020/12/10 03:54:10;;;;;;;33.50;18.83;;;1.80;99.90;;;;;;5082614;28;20184;-76
2020/12/10 03:56:36;;;;;;;34.30;18.93;;;1.80;99.90;;;;;;5083209;28;20259;-76
2020/12/10 03:59:03;;;;;;;32.13;18.50;;;1.80;99.90;;;;;;5081420;28;20178;-76
2020/12/10 04:01:29;;;;;;;34.30;18.17;;;1.80;99.90;;;;;;5084354;28;20210;-77
2020/12/10 04:03:55;;;;;;;31.87;18.17;;;1.80;99.90;;;;;;5080671;28;20459;-76
2020/12/10 04:06:21;;;;;;;29.07;16.47;;;1.80;99.90;;;;;;5083724;28;20916;-76
2020/12/10 04:08:46;;;;;;;29.20;17.00;;;1.80;99.90;;;;;;5081763;28;20194;-76
2020/12/10 04:11:12;;;;;;;30.97;17.50;;;1.70;99.90;;;;;;5082459;28;20297;-77
2020/12/10 04:13:37;;;;;;;33.33;19.33;;;1.70;99.90;;;;;;5082982;28;20196;-76
2020/12/10 04:16:03;;;;;;;32.07;18.13;;;1.70;99.90;;;;;;5081014;28;20235;-76
2020/12/10 04:18:30;;;;;;;37.13;19.00;;;1.70;99.90;;;;;;5083977;28;20184;-76
2020/12/10 04:20:56;;;;;;;28.23;16.17;;;1.70;99.90;;;;;;5080218;28;20454;-76
2020/12/10 04:23:22;;;;;;;37.50;17.93;;;1.70;99.90;;;;;;5083209;28;20798;-76
2020/12/10 04:25:55;;;;;;;31.00;17.70;;;1.80;99.90;;;;;;5081366;28;20938;-76
2020/12/10 04:28:21;;;;;;;32.00;17.50;;;1.80;99.90;;;;;;5083325;28;20517;-77
2020/12/10 04:30:47;;;;;;;34.10;18.87;;;1.80;99.90;;;;;;5081013;28;20521;-76
2020/12/10 04:33:14;;;;;;;37.37;17.47;;;1.70;99.90;;;;;;5082270;28;20484;-76
2020/12/10 04:35:40;;;;;;;35.07;18.00;;;1.70;99.90;;;;;;5082131;28;20401;-76
2020/12/10 04:38:06;;;;;;;32.67;17.00;;;1.70;99.90;;;;;;5080866;28;20405;-76
2020/12/10 04:40:33;;;;;;;35.20;20.10;;;1.70;99.90;;;;;;5082990;28;20921;-76
2020/12/10 04:43:01;;;;;;;31.00;19.00;;;1.70;99.90;;;;;;5080551;28;20490;-76
2020/12/10 04:45:26;;;;;;;37.60;19.30;;;1.80;99.90;;;;;;5112294;27;20874;-76
2020/12/10 04:47:52;;;;;;;36.67;20.13;;;1.80;99.90;;;;;;5083474;28;20392;-76
2020/12/10 04:50:23;;;;;;;32.67;19.07;;;1.80;99.90;;;;;;5079539;28;20206;-76
2020/12/10 04:52:50;;;;;;;44.33;20.07;;;1.80;99.90;;;;;;5082565;28;20508;-76
2020/12/10 04:55:17;;;;;;;34.20;17.97;;;1.80;99.90;;;;;;5081116;28;20499;-77
2020/12/10 04:57:43;;;;;;;35.33;19.20;;;1.80;99.90;;;;;;5081321;28;20457;-76
2020/12/10 05:00:12;;;;;;;38.10;20.80;;;1.80;99.90;;;;;;5082295;28;20676;-76
2020/12/10 05:02:38;;;;;;;33.13;18.53;;;1.80;99.90;;;;;;5080565;28;20394;-76
2020/12/10 05:05:26;;;;;;;37.57;19.83;;;1.80;99.90;;;;;;5082754;28;20417;-76
2020/12/10 05:07:53;;;;;;;34.20;19.10;;;1.80;99.90;;;;;;5082552;28;20170;-76
2020/12/10 05:10:19;;;;;;;38.10;18.23;;;1.70;99.90;;;;;;5080384;28;20409;-76
2020/12/10 05:12:48;;;;;;;35.37;19.53;;;1.80;99.90;;;;;;5081474;28;20420;-77
2020/12/10 05:15:18;;;;;;;37.00;18.80;;;1.80;99.90;;;;;;5081264;28;20173;-76
2020/12/10 05:17:44;;;;;;;34.00;18.93;;;1.80;99.90;;;;;;5081043;28;20422;-76
2020/12/10 05:20:09;;;;;;;33.10;18.30;;;1.80;99.90;;;;;;5082172;28;20529;-76
2020/12/10 05:22:44;;;;;;;39.77;21.57;;;1.70;99.90;;;;;;5082675;28;20708;-76
2020/12/10 05:25:09;;;;;;;37.63;21.50;;;1.60;99.90;;;;;;5081767;28;20178;-76
2020/12/10 05:27:35;;;;;;;35.70;18.80;;;1.60;99.90;;;;;;5079769;28;20417;-76
2020/12/10 05:30:02;;;;;;;37.73;20.63;;;1.60;99.90;;;;;;5082715;28;20544;-76
2020/12/10 05:32:28;;;;;;;41.67;20.43;;;1.70;99.90;;;;;;5079245;28;20562;-76
2020/12/10 05:34:53;;;;;;;41.00;20.43;;;1.60;99.90;;;;;;5081757;28;20410;-76
2020/12/10 05:37:29;;;;;;;37.10;19.63;;;1.60;99.90;;;;;;5080236;28;20279;-77
2020/12/10 05:39:59;;;;;;;34.67;19.30;;;1.60;99.90;;;;;;5082846;28;20196;-77
2020/12/10 05:42:33;;;;;;;33.50;18.70;;;1.70;99.90;;;;;;5079415;28;20424;-76
2020/12/10 05:44:59;;;;;;;32.73;19.20;;;1.70;99.90;;;;;;5079532;28;20433;-76
2020/12/10 05:47:28;;;;;;;35.83;19.70;;;1.60;99.90;;;;;;5082388;28;20430;-76
2020/12/10 05:49:55;;;;;;;34.93;19.37;;;1.70;99.90;;;;;;5079147;28;20412;-77
2020/12/10 05:52:25;;;;;;;35.57;18.83;;;1.60;99.90;;;;;;5082777;28;20441;-76
2020/12/10 05:54:56;;;;;;;34.67;18.17;;;1.60;99.90;;;;;;5079356;28;20588;-77
2020/12/10 05:57:22;;;;;;;36.07;19.33;;;1.60;99.90;;;;;;5082145;28;20403;-77
2020/12/10 05:59:49;;;;;;;37.10;19.93;;;1.70;99.90;;;;;;5078618;28;20523;-77
2020/12/10 06:02:18;;;;;;;41.00;20.23;;;1.70;99.90;;;;;;5081021;28;20184;-75
2020/12/10 06:04:45;;;;;;;36.17;19.07;;;1.60;99.90;;;;;;5080420;28;20787;-77
2020/12/10 06:07:11;;;;;;;30.80;18.60;;;1.50;99.90;;;;;;5062449;28;20424;-76
2020/12/10 06:09:37;;;;;;;35.93;19.77;;;1.60;99.90;;;;;;5081283;28;20795;-76
2020/12/10 06:12:07;;;;;;;32.80;18.00;;;1.60;99.90;;;;;;5079469;28;20198;-76
2020/12/10 06:14:53;;;;;;;33.87;15.30;;;1.60;99.90;;;;;;5081927;28;20391;-77
2020/12/10 06:17:19;;;;;;;29.37;16.37;;;1.60;99.90;;;;;;5081385;28;20423;-76
2020/12/10 06:19:45;;;;;;;26.37;16.57;;;1.70;99.90;;;;;;5080016;28;20450;-76
2020/12/10 06:22:25;;;;;;;35.30;18.20;;;1.70;99.90;;;;;;5080375;28;20498;-77
2020/12/10 06:24:51;;;;;;;32.70;17.60;;;1.70;99.90;;;;;;5079378;28;20600;-77
2020/12/10 06:27:35;;;;;;;33.63;19.40;;;1.70;99.90;;;;;;5080934;28;20465;-77
2020/12/10 06:30:17;;;;;;;33.30;17.90;;;1.60;99.90;;;;;;5079075;28;20411;-76
2020/12/10 06:32:51;;;;;;;31.77;18.37;;;1.70;99.90;;;;;;5076041;28;20426;-77
2020/12/10 06:35:34;;;;;;;33.03;20.10;;;1.70;99.90;;;;;;5081334;28;20445;-76
2020/12/10 06:38:02;;;;;;;37.57;20.07;;;1.70;99.90;;;;;;5078639;28;20415;-76
2020/12/10 06:40:31;;;;;;;31.10;18.60;;;1.70;99.90;;;;;;5082199;28;20405;-78
2020/12/10 06:42:57;;;;;;;34.60;18.63;;;1.60;99.90;;;;;;5078751;28;20434;-77
2020/12/10 06:45:28;;;;;;;38.87;19.63;;;1.70;99.90;;;;;;5082407;28;20394;-76
2020/12/10 06:47:53;;;;;;;44.10;18.90;;;1.70;99.90;;;;;;5082325;28;20964;-77
2020/12/10 06:50:33;;;;;;;37.27;20.37;;;1.70;99.90;;;;;;5085212;28;20437;-75
2020/12/10 06:53:18;;;;;;;37.73;20.20;;;1.70;99.90;;;;;;5082244;28;20269;-76
2020/12/10 06:55:59;;;;;;;35.17;19.30;;;1.70;99.90;;;;;;5083192;28;20444;-76
2020/12/10 06:58:50;;;;;;;49.50;20.60;;;1.70;99.90;;;;;;5081226;28;20512;-76
2020/12/10 07:01:42;;;;;;;38.63;18.00;;;1.60;99.90;;;;;;5075619;28;20803;-76
2020/12/10 07:04:36;;;;;;;45.10;21.10;;;1.70;99.90;;;;;;5080967;28;20495;-76
2020/12/10 07:07:14;;;;;;;37.00;20.23;;;1.60;99.90;;;;;;5081684;28;20422;-76
2020/12/10 07:09:56;;;;;;;35.53;19.00;;;1.70;99.90;;;;;;5083277;28;20807;-73
2020/12/10 07:12:23;;;;;;;40.83;20.40;;;1.70;99.90;;;;;;5082424;28;20396;-75
2020/12/10 07:14:50;;;;;;;37.73;19.17;;;1.70;99.90;;;;;;5084578;28;20557;-75
2020/12/10 07:17:17;;;;;;;33.17;19.60;;;1.70;99.90;;;;;;5082758;28;20428;-74
2020/12/10 07:19:42;;;;;;;37.10;18.83;;;1.80;99.90;;;;;;5083488;28;20459;-75
2020/12/10 07:22:08;;;;;;;32.83;18.10;;;1.80;99.90;;;;;;5083749;28;20427;-74
2020/12/10 07:24:33;;;;;;;36.27;17.20;;;1.80;99.90;;;;;;5081923;28;20225;-74
2020/12/10 07:26:59;;;;;;;32.67;15.83;;;1.80;99.90;;;;;;5084893;28;20179;-74
2020/12/10 07:29:25;;;;;;;33.77;18.17;;;1.80;99.90;;;;;;5081322;28;20244;-74
2020/12/10 07:31:50;;;;;;;36.63;18.70;;;1.80;99.90;;;;;;5082716;28;20183;-74
2020/12/10 07:34:16;;;;;;;38.67;18.73;;;1.80;99.90;;;;;;5082718;28;20176;-74
2020/12/10 07:36:50;;;;;;;37.13;19.57;;;1.80;99.90;;;;;;5082591;28;20189;-75
2020/12/10 07:39:36;;;;;;;33.80;18.93;;;1.80;99.90;;;;;;5082527;28;20187;-75
2020/12/10 07:42:01;;;;;;;30.77;16.17;;;1.80;99.90;;;;;;5081141;28;20415;-75
2020/12/10 07:44:29;;;;;;;31.10;16.40;;;1.80;99.90;;;;;;5084302;28;20465;-75
2020/12/10 07:46:54;;;;;;;42.40;18.00;;;1.90;99.90;;;;;;5081162;28;20241;-75
2020/12/10 07:49:27;;;;;;;28.50;17.50;;;1.80;99.90;;;;;;5083456;28;20390;-73
2020/12/10 07:52:02;;;;;;;39.90;18.43;;;1.80;99.90;;;;;;5080116;28;20176;-74
2020/12/10 07:55:05;;;;;;;30.57;17.93;;;1.80;99.90;;;;;;5080866;28;20910;-74
2020/12/10 07:57:36;;;;;;;35.63;19.27;;;1.90;99.90;;;;;;5077638;28;20483;-75
2020/12/10 08:00:05;;;;;;;31.20;17.27;;;1.90;99.90;;;;;;5082674;28;20456;-75
2020/12/10 08:02:52;;;;;;;31.67;19.50;;;1.90;99.90;;;;;;5085065;28;20400;-74
2020/12/10 08:05:18;;;;;;;33.57;17.23;;;1.90;99.90;;;;;;5083283;28;20844;-75
2020/12/10 08:07:49;;;;;;;32.60;17.03;;;1.90;99.90;;;;;;5082273;28;20923;-74
2020/12/10 08:10:29;;;;;;;31.40;17.10;;;1.80;99.90;;;;;;5082516;28;20420;-73
2020/12/10 08:13:14;;;;;;;29.80;17.60;;;1.90;99.90;;;;;;5080760;28;20446;-74
2020/12/10 08:15:42;;;;;;;30.93;16.87;;;1.80;99.90;;;;;;5081870;28;20439;-75
2020/12/10 08:18:10;;;;;;;32.43;17.30;;;1.70;99.90;;;;;;5082705;28;20730;-75
2020/12/10 08:20:51;;;;;;;29.50;16.03;;;1.80;99.90;;;;;;5079778;28;20486;-74
2020/12/10 08:23:19;;;;;;;34.83;17.77;;;1.80;99.90;;;;;;5081550;28;20546;-74
2020/12/10 08:25:46;;;;;;;36.27;17.87;;;1.80;99.90;;;;;;5082143;28;20415;-74
2020/12/10 08:28:13;;;;;;;29.03;17.50;;;1.70;99.90;;;;;;5082033;28;20395;-75
2020/12/10 08:30:54;;;;;;;30.57;19.20;;;1.80;99.90;;;;;;5081343;28;20497;-75
2020/12/10 08:33:20;;;;;;;31.03;17.57;;;1.80;99.90;;;;;;5081006;28;20901;-74
2020/12/10 08:35:47;;;;;;;34.63;20.10;;;1.90;99.90;;;;;;5081121;28;20429;-74
2020/12/10 08:38:13;;;;;;;32.37;17.83;;;1.90;99.90;;;;;;5083423;28;20428;-74
2020/12/10 08:40:38;;;;;;;32.97;17.00;;;2.00;99.90;;;;;;5082509;28;20512;-74
2020/12/10 08:43:13;;;;;;;35.17;19.10;;;2.00;99.90;;;;;;5080642;28;20869;-74
2020/12/10 08:45:44;;;;;;;33.73;17.20;;;1.90;99.90;;;;;;5083861;28;20230;-74
2020/12/10 08:48:15;;;;;;;39.63;18.40;;;1.90;99.90;;;;;;5082020;28;20421;-76
2020/12/10 08:50:52;;;;;;;27.90;16.10;;;2.00;99.90;;;;;;5081278;28;20992;-74
2020/12/10 08:53:18;;;;;;;31.23;16.53;;;2.10;99.90;;;;;;5083521;28;20932;-74
2020/12/10 08:55:52;;;;;;;34.30;18.10;;;2.10;99.90;;;;;;5080423;28;20392;-74
2020/12/10 08:58:19;;;;;;;30.63;18.00;;;2.10;99.90;;;;;;5081824;28;20981;-74
2020/12/10 09:00:45;;;;;;;25.63;15.53;;;2.10;99.90;;;;;;5081340;28;20434;-73
2020/12/10 09:03:10;;;;;;;38.67;17.37;;;2.10;99.90;;;;;;5079650;28;20591;-74
2020/12/10 09:05:36;;;;;;;34.33;16.87;;;2.10;99.90;;;;;;5082551;28;20386;-75
2020/12/10 09:08:02;;;;;;;35.30;16.03;;;2.20;99.90;;;;;;5079369;28;20547;-75
2020/12/10 09:10:30;;;;;;;33.13;17.80;;;2.30;99.90;;;;;;5082926;28;20203;-74
2020/12/10 09:12:57;;;;;;;31.97;18.00;;;2.20;99.90;;;;;;5079453;28;20173;-74
2020/12/10 09:15:23;;;;;;;34.63;18.37;;;2.30;99.90;;;;;;5082518;28;20417;-74
2020/12/10 09:17:49;;;;;;;26.87;15.63;;;2.20;99.90;;;;;;5080378;28;20490;-74
2020/12/10 09:20:14;;;;;;;35.30;16.90;;;2.30;99.90;;;;;;5081173;28;20459;-74
2020/12/10 09:22:40;;;;;;;27.43;15.30;;;2.30;99.90;;;;;;5081790;28;20181;-75
2020/12/10 09:25:05;;;;;;;27.47;13.67;;;2.30;99.90;;;;;;5079912;28;20201;-74
2020/12/10 09:27:33;;;;;;;29.33;16.03;;;2.30;99.90;;;;;;5082448;28;20174;-75
2020/12/10 09:29:58;;;;;;;25.43;13.80;;;2.30;99.90;;;;;;5078394;28;20296;-74
2020/12/10 09:32:24;;;;;;;25.37;14.00;;;2.30;99.90;;;;;;5081892;28;20554;-74
2020/12/10 09:34:51;;;;;;;26.37;12.73;;;2.30;99.90;;;;;;5080289;28;20179;-74
2020/12/10 09:37:16;;;;;;;19.33;12.17;;;2.40;99.90;;;;;;5080563;28;20405;-74
2020/12/10 09:39:42;;;;;;;23.60;14.27;;;2.40;99.90;;;;;;5081397;28;20527;-74
2020/12/10 09:42:07;;;;;;;24.37;13.83;;;2.40;99.90;;;;;;5078523;28;20177;-74
2020/12/10 09:44:33;;;;;;;25.50;14.87;;;2.20;99.90;;;;;;5082743;28;20769;-74
2020/12/10 09:46:58;;;;;;;16.50;10.87;;;2.20;99.90;;;;;;5078830;28;20551;-74
2020/12/10 09:49:24;;;;;;;17.57;12.60;;;2.20;99.90;;;;;;5082103;28;20175;-74
2020/12/10 09:51:56;;;;;;;16.50;10.57;;;2.10;99.90;;;;;;5080188;28;20172;-74
2020/12/10 09:59:21;;;;;;;19.10;11.23;;;2.50;99.90;;;;;;5081653;28;20646;-74
2020/12/10 10:01:47;;;;;;;19.93;11.60;;;2.60;99.90;;;;;;5080293;28;20509;-74
2020/12/10 10:04:13;;;;;;;21.37;12.60;;;2.60;99.90;;;;;;5078975;28;20211;-75
2020/12/10 10:06:41;;;;;;;19.40;11.37;;;2.80;99.90;;;;;;5081859;28;20180;-73
2020/12/10 10:09:06;;;;;;;18.47;11.10;;;2.80;99.90;;;;;;5079287;28;20181;-74
2020/12/10 10:11:32;;;;;;;12.83;8.43;;;2.90;99.90;;;;;;5082385;28;20454;-74
2020/12/10 10:13:57;;;;;;;15.07;9.40;;;2.80;99.90;;;;;;5078749;28;20180;-75
2020/12/10 10:16:27;;;;;;;15.67;10.23;;;2.90;99.90;;;;;;5080462;28;20185;-74
2020/12/10 10:18:53;;;;;;;15.63;11.77;;;3.00;99.90;;;;;;5078223;28;20212;-74
2020/12/10 10:21:19;;;;;;;14.27;9.83;;;3.00;99.90;;;;;;5084700;28;20459;-74
2020/12/10 10:23:45;;;;;;;12.63;7.60;;;2.90;99.90;;;;;;5084442;28;20208;-74
2020/12/10 10:26:10;;;;;;;11.30;8.37;;;3.00;99.90;;;;;;5086797;28;20392;-74
2020/12/10 10:28:36;;;;;;;10.87;7.30;;;3.00;99.90;;;;;;5084619;28;20486;-74
2020/12/10 10:31:02;;;;;;;11.17;7.23;;;3.00;99.90;;;;;;5082274;28;20220;-74
2020/12/10 10:33:27;;;;;;;15.40;9.60;;;3.00;99.90;;;;;;5086058;28;20204;-74
2020/12/10 10:35:53;;;;;;;14.33;8.60;;;3.10;99.90;;;;;;5082478;28;20189;-75
2020/12/10 10:38:20;;;;;;;15.47;9.93;;;3.10;99.90;;;;;;5084402;28;20176;-75
2020/12/10 10:40:46;;;;;;;12.00;9.03;;;3.00;99.90;;;;;;5083914;28;20985;-74
2020/12/10 10:43:11;;;;;;;16.43;11.03;;;3.00;99.90;;;;;;5083402;28;20444;-75
2020/12/10 10:45:37;;;;;;;16.13;9.80;;;3.00;99.90;;;;;;5085543;28;20512;-74
2020/12/10 10:48:02;;;;;;;16.60;10.47;;;3.10;99.90;;;;;;5081837;28;20238;-74
2020/12/10 10:50:28;;;;;;;16.30;9.60;;;3.20;99.90;;;;;;5085752;28;20734;-74
2020/12/10 10:52:53;;;;;;;16.13;9.40;;;3.20;99.90;;;;;;5082676;28;20214;-73
2020/12/10 10:55:19;;;;;;;18.80;9.87;;;3.20;99.90;;;;;;5084466;28;20193;-73
2020/12/10 10:57:45;;;;;;;15.07;9.60;;;3.30;99.90;;;;;;5080205;28;20178;-74
2020/12/10 11:00:10;;;;;;;14.60;10.40;;;3.40;99.90;;;;;;5081578;28;20199;-74
2020/12/10 11:02:36;;;;;;;17.83;11.07;;;3.40;99.90;;;;;;5084864;28;20184;-74
2020/12/10 11:05:02;;;;;;;24.83;11.90;;;3.40;99.90;;;;;;5081992;28;20208;-74
2020/12/10 11:07:27;;;;;;;16.00;9.40;;;3.40;99.90;;;;;;5082932;28;20172;-74
2020/12/10 11:09:53;;;;;;;18.57;10.40;;;3.50;99.90;;;;;;5085311;28;20413;-75
2020/12/10 11:12:19;;;;;;;17.57;10.03;;;3.50;99.90;;;;;;5083201;28;20181;-73
2020/12/10 11:14:45;;;;;;;17.53;10.73;;;3.50;99.90;;;;;;5083323;28;20648;-73
2020/12/10 11:17:10;;;;;;;16.33;10.57;;;3.40;99.90;;;;;;5084027;28;20185;-74
2020/12/10 11:19:36;;;;;;;15.17;8.93;;;3.40;99.90;;;;;;5081993;28;20432;-74
2020/12/10 11:22:02;;;;;;;16.43;9.83;;;3.40;99.90;;;;;;5084200;28;20200;-74
2020/12/10 11:24:27;;;;;;;17.07;10.73;;;3.40;99.90;;;;;;5081691;28;20200;-74
2020/12/10 11:26:53;;;;;;;17.07;9.90;;;3.40;99.90;;;;;;5083968;28;20429;-74
2020/12/10 11:29:19;;;;;;;18.57;11.30;;;3.40;99.90;;;;;;5082659;28;20204;-74
2020/12/10 11:31:44;;;;;;;21.90;11.87;;;3.40;99.90;;;;;;5082329;28;20594;-75
2020/12/10 11:34:10;;;;;;;17.27;10.80;;;3.40;99.90;;;;;;5083728;28;20216;-73
2020/12/10 11:36:35;;;;;;;17.10;10.87;;;3.40;99.90;;;;;;5081762;28;20248;-74
2020/12/10 11:39:01;;;;;;;19.27;10.80;;;3.40;99.90;;;;;;5085014;28;20184;-75
2020/12/10 11:41:26;;;;;;;23.90;12.90;;;3.40;99.90;;;;;;5081482;28;20202;-74
2020/12/10 11:43:52;;;;;;;17.67;11.07;;;3.40;99.90;;;;;;5085124;28;20208;-73
2020/12/10 11:46:18;;;;;;;19.23;10.70;;;3.40;99.90;;;;;;5082077;28;20173;-73
2020/12/10 11:48:43;;;;;;;18.97;11.93;;;3.30;99.90;;;;;;5082899;28;20190;-72
2020/12/10 11:51:09;;;;;;;22.13;11.83;;;3.30;99.90;;;;;;5084043;28;20253;-73
2020/12/10 11:53:35;;;;;;;21.73;11.27;;;3.30;99.90;;;;;;5081339;28;20565;-74
2020/12/10 11:56:02;;;;;;;26.70;10.77;;;3.40;99.90;;;;;;5084584;28;20680;-73
2020/12/10 11:58:31;;;;;;;22.33;13.17;;;3.30;99.90;;;;;;5081148;28;20421;-73
2020/12/10 12:00:56;;;;;;;19.80;11.97;;;3.30;99.90;;;;;;5083955;28;20506;-74
2020/12/10 12:03:22;;;;;;;18.27;11.83;;;3.40;99.90;;;;;;5081776;28;20507;-74
2020/12/10 12:05:47;;;;;;;25.20;13.40;;;3.40;99.90;;;;;;5082708;28;20176;-74
2020/12/10 12:08:13;;;;;;;22.20;12.33;;;3.40;99.90;;;;;;5079952;28;20185;-75
2020/12/10 12:10:38;;;;;;;21.37;12.40;;;3.30;99.90;;;;;;5083460;28;20197;-74
2020/12/10 12:13:04;;;;;;;22.57;12.60;;;3.30;99.90;;;;;;5084710;28;20189;-74
2020/12/10 12:15:29;;;;;;;23.40;12.90;;;3.30;99.90;;;;;;5080861;28;20207;-74
2020/12/10 12:17:55;;;;;;;23.87;13.20;;;3.30;99.90;;;;;;5083241;28;20169;-74
2020/12/10 12:20:24;;;;;;;23.67;12.60;;;3.20;99.90;;;;;;5081677;28;20192;-74
2020/12/10 12:22:51;;;;;;;24.00;13.43;;;3.20;99.90;;;;;;5082599;28;20170;-74
2020/12/10 12:25:17;;;;;;;21.70;14.50;;;3.20;99.90;;;;;;5082375;28;20476;-74
2020/12/10 12:27:42;;;;;;;22.60;13.90;;;3.20;99.90;;;;;;5081320;28;20436;-75
2020/12/10 12:30:08;;;;;;;23.43;13.10;;;3.20;99.90;;;;;;5083011;28;20534;-74
2020/12/10 12:32:33;;;;;;;29.60;14.60;;;3.20;99.90;;;;;;5079167;28;20203;-74
2020/12/10 12:34:59;;;;;;;22.27;12.73;;;3.30;99.90;;;;;;5083619;28;20675;-75
2020/12/10 12:37:24;;;;;;;21.93;11.93;;;3.30;99.90;;;;;;5080982;28;20184;-74
2020/12/10 12:39:50;;;;;;;19.90;11.87;;;3.30;99.90;;;;;;5082147;28;20198;-75
2020/12/10 12:42:15;;;;;;;19.23;11.90;;;3.30;99.90;;;;;;5081415;28;20184;-75
2020/12/10 12:44:41;;;;;;;15.67;10.70;;;3.30;99.90;;;;;;5079754;28;20289;-74